VMMC/MFM METAR and TAF weather

Enter ICAO airport designator
Station Type Date Time Source
VMMC METAR 2020/01/19 00:30 UTC NOAA

VMMC 190030Z 36013KT 8000 FEW020 SCT035 17/12 Q1021 NOSIG


Station Type Date Time Source
VMMC Decoded METAR 2020/01/19 00:30 UTC NOAA

Taipa, Macau (VMMC) 22-10N 113-34E
Jan 18, 2020 - 07:30 PM EST / 2020.01.19 0030 UTC
Wind: from the N (360 degrees) at 15 MPH (13 KT):0
Visibility: 4 mile(s):0
Sky conditions: partly cloudy
Temperature: 62 F (17 C)
Dew Point: 53 F (12 C)
Relative Humidity: 72%
Pressure (altimeter): 30.15 in. Hg (1021 hPa)
ob: VMMC 190030Z 36013KT 8000 FEW020 SCT035 17/12 Q1021 NOSIG
cycle: 0

Station Type Date Time Source
VMMC TAF 2020/01/18 18:21 UTC NOAA

TAF VMMC 181700Z 1818/1924 02008KT 9000 FEW015 SCT025
TEMPO 1820/1902 4500 -RA

Example: see airport list